createdAt,value
2022-08-25T00:00:18.451Z,101522.94
2022-08-25T00:02:56.108Z,101520.78
2022-08-25T00:05:33.444Z,101520.53
2022-08-25T00:08:03.590Z,101520.78
2022-08-25T00:10:31.345Z,101514.03
2022-08-25T00:12:59.143Z,101517.91
2022-08-25T00:15:27.298Z,101515.69
2022-08-25T00:17:55.610Z,101520.19
2022-08-25T00:20:25.426Z,101521.28
2022-08-25T00:22:52.906Z,101520.66
2022-08-25T00:25:21.074Z,101523.22
2022-08-25T00:27:48.603Z,101525.16
2022-08-25T00:30:17.433Z,101512.78
2022-08-25T00:32:52.554Z,101514.72
2022-08-25T00:35:26.663Z,101517.41
2022-08-25T00:37:55.866Z,101525.69
2022-08-25T00:40:26.828Z,101524.81
2022-08-25T00:42:56.214Z,101521.38
2022-08-25T00:45:24.452Z,101520.53
2022-08-25T00:47:51.809Z,101521.38
2022-08-25T00:50:22.642Z,101531.28
2022-08-25T00:53:00.007Z,101530.53
2022-08-25T00:55:38.092Z,101527.09
2022-08-25T00:58:21.779Z,101527.09
2022-08-25T01:00:53.989Z,101529.69
2022-08-25T01:03:32.896Z,101524.31
2022-08-25T01:06:04.010Z,101525.41
2022-08-25T01:08:33.138Z,101522.81
2022-08-25T01:11:06.831Z,101524.53
2022-08-25T01:13:45.143Z,101525.63
2022-08-25T01:16:15.685Z,101525.84
2022-08-25T01:18:57.538Z,101521.34
2022-08-25T01:21:29.375Z,101522.31
2022-08-25T01:23:59.525Z,101522.31
2022-08-25T01:26:34.855Z,101514.44
2022-08-25T01:29:25.158Z,101517.34
2022-08-25T01:32:06.870Z,101523.81
2022-08-25T01:34:41.713Z,101523.06
2022-08-25T01:37:13.394Z,101515.25
2022-08-25T01:39:43.390Z,101520.19
2022-08-25T01:42:39.389Z,101517.09
2022-08-25T01:45:07.544Z,101513.84
2022-08-25T01:47:34.911Z,101512.13
2022-08-25T01:50:02.209Z,101508.72
2022-08-25T01:52:43.360Z,101515.38
2022-08-25T01:55:10.691Z,101514.75
2022-08-25T01:57:37.965Z,101513.09
2022-08-25T02:00:09.073Z,101514.31
2022-08-25T02:02:42.014Z,101510.44
2022-08-25T02:05:14.012Z,101521.59
2022-08-25T02:07:42.463Z,101518.34
2022-08-25T02:10:13.750Z,101516.84
2022-08-25T02:12:40.999Z,101520.81
2022-08-25T02:15:09.143Z,101520.28
2022-08-25T02:17:37.154Z,101514.38
2022-08-25T02:20:09.055Z,101526.16
2022-08-25T02:22:36.295Z,101523.59
2022-08-25T02:25:05.708Z,101528.31
2022-08-25T02:27:32.846Z,101524.03
2022-08-25T02:30:00.951Z,101518.97
2022-08-25T02:32:28.083Z,101520.25
2022-08-25T02:34:55.356Z,101520.63
2022-08-25T02:37:22.714Z,101522.78
2022-08-25T02:39:50.161Z,101525.78
2022-08-25T02:42:17.310Z,101529.53
2022-08-25T02:44:44.395Z,101527.03
2022-08-25T02:47:11.445Z,101528.19
2022-08-25T02:49:38.623Z,101526.78
2022-08-25T02:52:05.947Z,101518.94
2022-08-25T02:54:33.049Z,101520.84
2022-08-25T02:57:00.102Z,101515.56
2022-08-25T02:59:27.403Z,101515.38
2022-08-25T03:01:54.660Z,101514.53
2022-08-25T03:04:21.990Z,101514.53
2022-08-25T03:06:49.219Z,101515.16
2022-08-25T03:09:17.967Z,101507.03
2022-08-25T03:11:47.403Z,101506.97
2022-08-25T03:14:15.346Z,101499.66
2022-08-25T03:16:42.963Z,101498.69
2022-08-25T03:19:14.064Z,101500.53
2022-08-25T03:21:41.230Z,101494.28
2022-08-25T03:24:08.687Z,101492.66
2022-08-25T03:26:54.214Z,101494.66
2022-08-25T03:29:33.913Z,101487.59
2022-08-25T03:32:02.321Z,101487.69
2022-08-25T03:34:30.320Z,101486.06
2022-08-25T03:36:59.028Z,101483.47
2022-08-25T03:39:26.934Z,101478.13
2022-08-25T03:41:55.124Z,101476.41
2022-08-25T03:44:23.040Z,101474.69
2022-08-25T03:46:52.397Z,101477.28
2022-08-25T03:49:24.468Z,101472.44
2022-08-25T03:51:54.701Z,101469.69
2022-08-25T03:54:25.047Z,101475.81
2022-08-25T03:56:53.268Z,101465.16
2022-08-25T03:59:20.528Z,101467.84
2022-08-25T04:01:54.043Z,101467.00
2022-08-25T04:04:22.927Z,101465.97
2022-08-25T04:06:50.087Z,101458.75
2022-08-25T04:09:17.194Z,101463.16
2022-08-25T04:11:44.548Z,101458.97
2022-08-25T04:14:12.992Z,101459.03
2022-08-25T04:16:45.163Z,101460.75
2022-08-25T04:19:12.839Z,101459.91
2022-08-25T04:21:41.594Z,101460.09
2022-08-25T04:24:11.979Z,101454.88
2022-08-25T04:26:46.502Z,101455.06
2022-08-25T04:29:17.123Z,101455.16
2022-08-25T04:31:50.296Z,101464.91
2022-08-25T04:34:29.698Z,101454.19
2022-08-25T04:37:01.510Z,101451.50
2022-08-25T04:39:29.437Z,101457.53
2022-08-25T04:41:57.484Z,101451.19
2022-08-25T04:44:25.373Z,101450.03
2022-08-25T04:46:52.515Z,101452.44
2022-08-25T04:49:19.723Z,101456.72
2022-08-25T04:51:46.909Z,101456.72
2022-08-25T04:54:22.776Z,101458.56
2022-08-25T04:56:54.151Z,101458.56
2022-08-25T04:59:22.779Z,101464.56
2022-08-25T05:01:52.353Z,101464.38
2022-08-25T05:04:28.206Z,101452.44
2022-08-25T05:06:58.689Z,101456.22
2022-08-25T05:09:27.353Z,101451.31
2022-08-25T05:11:55.362Z,101453.47
2022-08-25T05:14:26.377Z,101454.00
2022-08-25T05:16:54.920Z,101453.38
2022-08-25T05:19:24.814Z,101459.91
2022-08-25T05:21:53.750Z,101454.56
2022-08-25T05:24:24.416Z,101455.31
2022-08-25T05:26:51.515Z,101454.47
2022-08-25T05:29:19.494Z,101439.00
2022-08-25T05:31:50.882Z,101443.94
2022-08-25T05:34:19.683Z,101444.50
2022-08-25T05:36:49.498Z,101447.69
2022-08-25T05:39:16.684Z,101451.66
2022-08-25T05:41:44.119Z,101459.44
2022-08-25T05:44:12.668Z,101459.56
2022-08-25T05:46:39.758Z,101462.44
2022-08-25T05:49:06.945Z,101463.75
2022-08-25T05:51:35.183Z,101469.53
2022-08-25T05:54:03.482Z,101479.25
2022-08-25T05:56:31.316Z,101472.34
2022-08-25T05:58:58.650Z,101475.00
2022-08-25T06:01:47.673Z,101484.47
2022-08-25T06:04:18.199Z,101483.34
2022-08-25T06:06:45.386Z,101475.38
2022-08-25T06:09:12.755Z,101485.38
2022-08-25T06:11:41.509Z,101480.06
2022-08-25T06:14:10.565Z,101482.78
2022-08-25T06:16:39.707Z,101483.53
2022-08-25T06:19:11.159Z,101483.22
2022-08-25T06:21:40.557Z,101474.81
2022-08-25T06:24:15.458Z,101474.59
2022-08-25T06:26:44.158Z,101475.97
2022-08-25T06:29:14.143Z,101471.06
2022-08-25T06:31:42.578Z,101483.00
2022-08-25T06:34:11.878Z,101485.94
2022-08-25T06:36:39.948Z,101485.38
2022-08-25T06:39:08.415Z,101481.22
2022-08-25T06:41:37.946Z,101485.81
2022-08-25T06:44:05.997Z,101481.53
2022-08-25T06:46:36.523Z,101477.53
2022-08-25T06:49:09.809Z,101482.34
2022-08-25T06:51:37.028Z,101478.81
2022-08-25T06:54:07.441Z,101478.06
2022-08-25T06:56:34.795Z,101481.66
2022-08-25T06:59:04.468Z,101484.59
2022-08-25T07:01:33.605Z,101476.66
2022-08-25T07:04:10.055Z,101482.16
2022-08-25T07:06:39.134Z,101469.81
2022-08-25T07:09:09.231Z,101467.09
2022-08-25T07:11:36.737Z,101468.16
2022-08-25T07:14:08.663Z,101462.00
2022-08-25T07:16:36.590Z,101462.88
2022-08-25T07:19:06.016Z,101461.13
2022-08-25T07:21:40.025Z,101467.69
2022-08-25T07:24:12.718Z,101459.72
2022-08-25T07:26:46.572Z,101462.63
2022-08-25T07:29:32.950Z,101463.97
2022-08-25T07:32:02.643Z,101463.63
2022-08-25T07:34:52.405Z,101468.00
2022-08-25T07:37:47.594Z,101463.25
2022-08-25T07:40:42.699Z,101460.22
2022-08-25T07:43:11.063Z,101454.88
2022-08-25T07:45:43.871Z,101458.19
2022-08-25T07:48:19.926Z,101461.69
2022-08-25T07:50:48.780Z,101452.50
2022-08-25T07:53:17.854Z,101456.19
2022-08-25T07:55:47.165Z,101462.34
2022-08-25T07:58:15.803Z,101462.69
2022-08-25T08:00:48.799Z,101454.16
2022-08-25T08:03:35.329Z,101465.28
2022-08-25T08:06:12.387Z,101455.75
2022-08-25T08:08:45.668Z,101458.03
2022-08-25T08:11:22.714Z,101452.06
2022-08-25T08:13:52.151Z,101453.75
2022-08-25T08:16:23.622Z,101455.06
2022-08-25T08:18:51.131Z,101443.22
2022-08-25T08:21:30.076Z,101445.84
2022-08-25T08:23:59.158Z,101440.41
2022-08-25T08:26:48.240Z,101446.41
2022-08-25T08:29:16.392Z,101444.78
2022-08-25T08:31:48.658Z,101433.91
2022-08-25T08:34:17.305Z,101432.78
2022-08-25T08:36:48.099Z,101427.59
2022-08-25T08:39:15.486Z,101425.59
2022-08-25T08:42:17.886Z,101428.41
2022-08-25T08:45:21.827Z,101423.41
2022-08-25T08:48:35.718Z,101424.06
2022-08-25T08:51:25.617Z,101415.25
2022-08-25T08:54:15.529Z,101410.19
2022-08-25T08:56:48.646Z,101411.44
2022-08-25T08:59:33.658Z,101403.19
2022-08-25T09:02:06.109Z,101402.91
2022-08-25T09:04:55.475Z,101415.59
2022-08-25T09:07:39.790Z,101406.66
2022-08-25T09:10:11.019Z,101420.63
2022-08-25T09:13:11.354Z,101413.19
2022-08-25T09:16:20.381Z,101406.97
2022-08-25T09:19:05.581Z,101410.13
2022-08-25T09:22:36.698Z,101410.25
2022-08-25T09:25:29.549Z,101408.91
2022-08-25T09:28:30.407Z,101408.69
2022-08-25T09:31:19.469Z,101398.47
2022-08-25T09:33:46.956Z,101404.13
2022-08-25T09:36:14.748Z,101405.03
2022-08-25T09:38:44.535Z,101402.34
2022-08-25T09:41:17.541Z,101402.19
2022-08-25T09:43:54.779Z,101393.03
2022-08-25T09:46:28.786Z,101397.53
2022-08-25T09:49:10.697Z,101402.56
2022-08-25T09:51:42.855Z,101391.03
2022-08-25T09:54:13.476Z,101397.13
2022-08-25T09:56:55.998Z,101393.94
2022-08-25T09:59:35.648Z,101389.53
2022-08-25T10:02:28.431Z,101389.53
2022-08-25T10:04:57.110Z,101389.72
2022-08-25T10:07:53.079Z,101385.47
2022-08-25T10:10:33.433Z,101372.38
2022-08-25T10:13:12.389Z,101377.47
2022-08-25T10:15:39.747Z,101371.16
2022-08-25T10:18:29.604Z,101370.66
2022-08-25T10:21:17.474Z,101371.66
2022-08-25T10:23:55.760Z,101367.59
2022-08-25T10:26:59.675Z,101357.88
2022-08-25T10:30:11.434Z,101351.34
2022-08-25T10:32:47.410Z,101352.78
2022-08-25T10:35:28.887Z,101350.88
2022-08-25T10:38:36.430Z,101340.84
2022-08-25T10:41:49.511Z,101340.09
2022-08-25T10:45:21.824Z,101332.75
2022-08-25T10:48:18.952Z,101316.13
2022-08-25T10:51:02.838Z,101316.75
2022-08-25T10:53:39.347Z,101320.41
2022-08-25T10:56:29.116Z,101310.81
2022-08-25T10:59:26.940Z,101304.09
2022-08-25T11:02:16.163Z,101308.34
2022-08-25T11:05:06.840Z,101310.88
2022-08-25T11:07:45.851Z,101300.53
2022-08-25T11:10:56.640Z,101296.53
2022-08-25T11:13:53.101Z,101292.88
2022-08-25T11:16:38.773Z,101290.84
2022-08-25T11:19:19.104Z,101295.72
2022-08-25T11:22:21.207Z,101294.25
2022-08-25T11:25:25.544Z,101283.88
2022-08-25T11:28:03.395Z,101280.47
2022-08-25T11:30:30.603Z,101283.97
2022-08-25T11:32:58.448Z,101284.44
2022-08-25T11:35:51.123Z,101286.44
2022-08-25T11:38:24.935Z,101289.44
2022-08-25T11:41:24.405Z,101277.38
2022-08-25T11:44:53.215Z,101284.72
2022-08-25T11:47:58.863Z,101274.78
2022-08-25T11:51:06.729Z,101267.28
2022-08-25T11:53:43.406Z,101268.59
2022-08-25T11:56:32.799Z,101261.72
2022-08-25T11:59:01.890Z,101264.72
2022-08-25T12:01:45.309Z,101252.63
2022-08-25T12:04:44.879Z,101252.69
2022-08-25T12:07:22.050Z,101247.44
2022-08-25T12:09:50.208Z,101241.69
2022-08-25T12:12:57.921Z,101249.72
2022-08-25T12:15:53.091Z,101245.13
2022-08-25T12:18:23.139Z,101239.97
2022-08-25T12:20:56.291Z,101245.56
2022-08-25T12:23:37.710Z,101225.81
2022-08-25T12:26:31.709Z,101236.63
2022-08-25T12:29:10.951Z,101233.16
2022-08-25T12:32:07.267Z,101232.81
2022-08-25T12:35:15.773Z,101230.09
2022-08-25T12:38:20.594Z,101238.28
2022-08-25T12:40:47.626Z,101240.91
2022-08-25T12:43:20.526Z,101229.72
2022-08-25T12:45:55.528Z,101225.28
2022-08-25T12:48:28.306Z,101230.41
2022-08-25T12:51:20.767Z,101228.31
2022-08-25T12:54:25.310Z,101221.06
2022-08-25T12:57:07.996Z,101236.38
2022-08-25T12:59:47.041Z,101225.38
2022-08-25T13:03:14.156Z,101220.53
2022-08-25T13:06:36.424Z,101224.75
2022-08-25T13:09:22.534Z,101220.59
2022-08-25T13:12:17.984Z,101223.81
2022-08-25T13:14:54.307Z,101220.50
2022-08-25T13:17:27.664Z,101211.97
2022-08-25T13:20:29.139Z,101210.75
2022-08-25T13:23:00.965Z,101198.47
2022-08-25T13:25:33.260Z,101200.16
2022-08-25T13:28:05.263Z,101192.75
2022-08-25T13:30:37.099Z,101187.75
2022-08-25T13:33:23.830Z,101191.25
2022-08-25T13:36:16.646Z,101184.41
2022-08-25T13:38:46.941Z,101185.00
2022-08-25T13:41:28.960Z,101178.56
2022-08-25T13:44:00.799Z,101174.53
2022-08-25T13:46:29.065Z,101170.72
2022-08-25T13:49:06.939Z,101172.22
2022-08-25T13:51:39.329Z,101165.78
2022-08-25T13:54:20.205Z,101164.75
2022-08-25T13:56:47.649Z,101169.16
2022-08-25T13:59:26.846Z,101156.41
2022-08-25T14:01:55.664Z,101167.84
2022-08-25T14:04:51.206Z,101172.50
2022-08-25T14:07:22.413Z,101161.56
2022-08-25T14:09:58.319Z,101158.41
2022-08-25T14:12:45.388Z,101151.28
2022-08-25T14:15:22.336Z,101145.00
2022-08-25T14:18:21.686Z,101142.25
2022-08-25T14:20:57.327Z,101141.69
2022-08-25T14:23:30.571Z,101144.22
2022-08-25T14:25:58.743Z,101148.88
2022-08-25T14:28:30.230Z,101142.75
2022-08-25T14:31:06.645Z,101142.97
2022-08-25T14:33:58.521Z,101140.63
2022-08-25T14:36:30.414Z,101132.84
2022-08-25T14:38:58.001Z,101129.03
2022-08-25T14:41:26.936Z,101139.34
2022-08-25T14:43:54.054Z,101129.38
2022-08-25T14:46:29.297Z,101130.47
2022-08-25T14:49:05.008Z,101128.97
2022-08-25T14:51:34.242Z,101130.28
2022-08-25T14:54:11.243Z,101126.06
2022-08-25T14:56:38.950Z,101122.69
2022-08-25T14:59:10.459Z,101121.44
2022-08-25T15:01:37.813Z,101118.69
2022-08-25T15:04:15.664Z,101124.41
2022-08-25T15:06:44.679Z,101117.66
2022-08-25T15:09:16.539Z,101116.41
2022-08-25T15:11:48.226Z,101122.28
2022-08-25T15:14:28.765Z,101114.28
2022-08-25T15:17:02.159Z,101112.59
2022-08-25T15:19:30.538Z,101113.88
2022-08-25T15:21:58.225Z,101110.69
2022-08-25T15:24:28.692Z,101107.72
2022-08-25T15:27:01.763Z,101109.22
2022-08-25T15:29:30.894Z,101109.22
2022-08-25T15:32:00.423Z,101110.50
2022-08-25T15:34:29.654Z,101101.63
2022-08-25T15:36:58.912Z,101104.38
2022-08-25T15:39:26.943Z,101104.34
2022-08-25T15:41:54.179Z,101111.34
2022-08-25T15:44:24.138Z,101105.63
2022-08-25T15:46:53.625Z,101094.63
2022-08-25T15:49:24.225Z,101095.28
2022-08-25T15:51:55.679Z,101095.09
2022-08-25T15:54:26.791Z,101092.34
2022-08-25T15:56:56.766Z,101099.94
2022-08-25T15:59:25.687Z,101098.88
2022-08-25T16:01:55.815Z,101104.16
2022-08-25T16:04:26.883Z,101097.38
2022-08-25T16:06:55.596Z,101103.72
2022-08-25T16:09:23.760Z,101100.13
2022-08-25T16:11:56.707Z,101093.38
2022-08-25T16:14:27.650Z,101094.44
2022-08-25T16:16:58.496Z,101085.78
2022-08-25T16:19:29.924Z,101088.72
2022-08-25T16:21:58.419Z,101090.44
2022-08-25T16:24:27.184Z,101080.72
2022-08-25T16:26:55.870Z,101077.53
2022-08-25T16:29:23.911Z,101083.47
2022-08-25T16:31:53.535Z,101079.88
2022-08-25T16:34:24.682Z,101081.78
2022-08-25T16:36:54.603Z,101076.50
2022-08-25T16:39:23.833Z,101076.94
2022-08-25T16:41:52.502Z,101080.69
2022-08-25T16:44:22.471Z,101078.59
2022-08-25T16:46:54.186Z,101081.94
2022-08-25T16:49:24.466Z,101081.25
2022-08-25T16:51:57.534Z,101074.28
2022-08-25T16:54:45.271Z,101081.69
2022-08-25T16:57:13.819Z,101078.63
2022-08-25T16:59:42.454Z,101078.59
2022-08-25T17:02:11.087Z,101077.31
2022-08-25T17:04:38.273Z,101084.94
2022-08-25T17:07:05.553Z,101079.47
2022-08-25T17:09:35.238Z,101081.31
2022-08-25T17:12:02.831Z,101084.66
2022-08-25T17:14:29.871Z,101078.56
2022-08-25T17:16:57.851Z,101081.47
2022-08-25T17:19:25.831Z,101083.72
2022-08-25T17:21:55.227Z,101081.91
2022-08-25T17:24:29.292Z,101075.63
2022-08-25T17:26:58.539Z,101085.53
2022-08-25T17:29:26.857Z,101083.72
2022-08-25T17:31:54.712Z,101085.31
2022-08-25T17:34:23.298Z,101085.31
2022-08-25T17:36:53.461Z,101087.56
2022-08-25T17:39:24.212Z,101085.13
2022-08-25T17:41:53.047Z,101098.91
2022-08-25T17:44:20.986Z,101085.94
2022-08-25T17:46:51.564Z,101083.19
2022-08-25T17:49:20.015Z,101083.84
2022-08-25T17:51:47.628Z,101082.59
2022-08-25T17:54:16.363Z,101099.84
2022-08-25T17:56:44.312Z,101092.16
2022-08-25T17:59:14.426Z,101098.09
2022-08-25T18:01:42.321Z,101096.00
2022-08-25T18:04:17.330Z,101096.09
2022-08-25T18:06:47.501Z,101095.00
2022-08-25T18:09:17.498Z,101098.97
2022-08-25T18:11:45.867Z,101095.59
2022-08-25T18:14:16.424Z,101094.97
2022-08-25T18:16:43.890Z,101099.41
2022-08-25T18:19:12.421Z,101097.03
2022-08-25T18:21:43.674Z,101082.41
2022-08-25T18:24:11.754Z,101089.88
2022-08-25T18:26:40.522Z,101090.16
2022-08-25T18:29:12.035Z,101086.72
2022-08-25T18:31:41.768Z,101093.28
2022-08-25T18:34:13.527Z,101092.88
2022-08-25T18:36:41.838Z,101089.59
2022-08-25T18:39:31.565Z,101086.16
2022-08-25T18:42:02.452Z,101094.91
2022-08-25T18:44:29.875Z,101080.09
2022-08-25T18:46:57.489Z,101082.03
2022-08-25T18:49:28.902Z,101078.56
2022-08-25T18:51:56.059Z,101082.19
2022-08-25T18:54:23.970Z,101082.78
2022-08-25T18:56:54.540Z,101086.75
2022-08-25T18:59:23.725Z,101077.28
2022-08-25T19:01:53.800Z,101086.19
2022-08-25T19:04:28.716Z,101083.56
2022-08-25T19:07:01.138Z,101091.75
2022-08-25T19:09:29.345Z,101094.69
2022-08-25T19:11:58.243Z,101101.00
2022-08-25T19:14:26.419Z,101100.75
2022-08-25T19:16:54.603Z,101103.34
2022-08-25T19:19:24.085Z,101108.09
2022-08-25T19:21:51.635Z,101103.72
2022-08-25T19:24:19.773Z,101108.47
2022-08-25T19:26:47.323Z,101109.66
2022-08-25T19:29:18.129Z,101116.81
2022-08-25T19:31:48.048Z,101111.56
2022-08-25T19:34:25.328Z,101110.56
2022-08-25T19:36:58.536Z,101113.16
2022-08-25T19:39:28.880Z,101118.72
2022-08-25T19:41:58.349Z,101111.47
2022-08-25T19:44:26.984Z,101118.44
2022-08-25T19:46:56.455Z,101120.00
2022-08-25T19:49:40.633Z,101124.13
2022-08-25T19:52:11.957Z,101122.09
2022-08-25T19:54:48.305Z,101126.06
2022-08-25T19:57:27.698Z,101117.84
2022-08-25T19:59:55.994Z,101121.22
2022-08-25T20:02:26.270Z,101127.91
2022-08-25T20:04:59.914Z,101144.97
2022-08-25T20:07:30.952Z,101140.81
2022-08-25T20:10:01.245Z,101139.25
2022-08-25T20:12:29.333Z,101153.72
2022-08-25T20:14:56.915Z,101148.88
2022-08-25T20:17:28.259Z,101154.41
2022-08-25T20:20:01.182Z,101159.97
2022-08-25T20:22:32.642Z,101157.22
2022-08-25T20:25:24.965Z,101161.69
2022-08-25T20:27:56.192Z,101179.00
2022-08-25T20:30:29.798Z,101178.84
2022-08-25T20:32:58.143Z,101182.69
2022-08-25T20:35:27.487Z,101182.69
2022-08-25T20:37:58.053Z,101185.53
2022-08-25T20:40:28.632Z,101190.19
2022-08-25T20:43:01.889Z,101191.91
2022-08-25T20:45:30.999Z,101186.22
2022-08-25T20:47:58.048Z,101195.19
2022-08-25T20:50:26.972Z,101191.91
2022-08-25T20:52:56.613Z,101196.13
2022-08-25T20:55:25.142Z,101194.22
2022-08-25T20:57:53.745Z,101196.88
2022-08-25T21:00:23.494Z,101204.63
2022-08-25T21:02:52.845Z,101205.44
2022-08-25T21:05:20.186Z,101195.03
2022-08-25T21:07:47.382Z,101198.97
2022-08-25T21:10:16.531Z,101199.50
2022-08-25T21:12:44.995Z,101208.59
2022-08-25T21:15:18.149Z,101206.88
2022-08-25T21:17:51.106Z,101212.50
2022-08-25T21:20:18.362Z,101212.16
2022-08-25T21:22:45.528Z,101215.25
2022-08-25T21:25:16.120Z,101220.00
2022-08-25T21:27:43.608Z,101227.41
2022-08-25T21:30:13.039Z,101227.78
2022-08-25T21:32:40.002Z,101223.75
2022-08-25T21:35:22.858Z,101233.91
2022-08-25T21:37:53.265Z,101227.09
2022-08-25T21:40:22.911Z,101228.44
2022-08-25T21:42:51.002Z,101230.53
2022-08-25T21:45:21.015Z,101233.47
2022-08-25T21:47:50.069Z,101230.41
2022-08-25T21:50:19.801Z,101227.38
2022-08-25T21:52:46.929Z,101237.69
2022-08-25T21:55:21.568Z,101239.88
2022-08-25T21:57:49.674Z,101234.38
2022-08-25T22:00:24.917Z,101232.53
2022-08-25T22:02:52.035Z,101241.22
2022-08-25T22:05:19.200Z,101236.31
2022-08-25T22:07:46.772Z,101236.59
2022-08-25T22:10:17.657Z,101233.53
2022-08-25T22:12:47.732Z,101234.72
2022-08-25T22:15:16.791Z,101235.00
2022-08-25T22:17:48.054Z,101243.41
2022-08-25T22:20:17.316Z,101242.91
2022-08-25T22:22:44.396Z,101247.91
2022-08-25T22:25:12.991Z,101248.28
2022-08-25T22:27:40.047Z,101252.16
2022-08-25T22:30:07.981Z,101259.84
2022-08-25T22:32:35.612Z,101258.56
2022-08-25T22:35:02.908Z,101256.50
2022-08-25T22:37:31.440Z,101261.47
2022-08-25T22:40:02.769Z,101263.66
2022-08-25T22:42:30.115Z,101262.19
2022-08-25T22:44:58.260Z,101265.31
2022-08-25T22:47:25.254Z,101251.38
2022-08-25T22:49:59.097Z,101265.38
2022-08-25T22:52:33.306Z,101259.53
2022-08-25T22:55:02.832Z,101257.91
2022-08-25T22:57:30.030Z,101256.31
2022-08-25T22:59:59.069Z,101265.59
2022-08-25T23:02:26.377Z,101263.94
2022-08-25T23:04:57.807Z,101261.53
2022-08-25T23:07:29.172Z,101254.53
2022-08-25T23:09:59.753Z,101261.69
2022-08-25T23:12:26.916Z,101262.78
2022-08-25T23:14:54.587Z,101271.91
2022-08-25T23:17:22.790Z,101263.97
2022-08-25T23:19:50.217Z,101266.03
2022-08-25T23:22:17.565Z,101259.06
2022-08-25T23:24:48.721Z,101266.38
2022-08-25T23:27:19.361Z,101274.78
2022-08-25T23:29:49.473Z,101266.09
2022-08-25T23:34:46.985Z,101271.88
2022-08-25T23:37:18.547Z,101266.84
2022-08-25T23:39:49.620Z,101279.63
2022-08-25T23:42:19.316Z,101285.22
2022-08-25T23:44:48.779Z,101280.31
2022-08-25T23:47:16.485Z,101284.16
2022-08-25T23:49:43.852Z,101278.28
2022-08-25T23:52:10.916Z,101279.69
2022-08-25T23:54:37.930Z,101280.09
2022-08-25T23:57:06.756Z,101284.84
2022-08-25T23:59:34.150Z,101289.84
